CheckWX is a tool to help pilots better visualize weather data.  It is not intended as a substitute for an official pre-flight weather briefing.

05:37:16 UTC

WBSB TAF
Brunei International Airport
Bandar Seri Begawan, Brunei Darussalam
TAF WBSB 172300Z 1800/1906 22004KT 9999 FEW014 FEW015CB TEMPO 1803/1806 8000 -SHRA SCT015 BECMG 1804/1806 30010KT FEW016 FEW017CB

Jun-18@
00:00 UTC

Jun-18 @ 00:00 UTC

Jun-18@
04:00 UTC

Jun-18 @ 04:00 UTC

TAF WBSB 172300Z 1800/1906 22004KT 9999 FEW014 FEW015CB

Expired

Wind
  • 220° at 4 KTS
Cloud Levels
  • Few at 1,400' AGL
  • Few at 1,500' AGL

Jun-18@
03:00 UTC

Jun-18 @ 03:00 UTC

Jun-18@
06:00 UTC

Jun-18 @ 06:00 UTC

TEMPO 1803/1806 8000 -SHRA SCT015

Temporary

Temporary Changes expected for less than half the time period

Conditions
Light Rain
Cloud Levels
  • Scattered at 1,500' AGL

Jun-18@
04:00 UTC

Jun-18 @ 04:00 UTC

Jun-19@
06:00 UTC

Jun-19 @ 06:00 UTC

BECMG 1804/1806 30010KT FEW016 FEW017CB

Becoming

Becoming Conditions expected by Tue, Jun 18, 2019 @ 06:00 UTC

Wind
  • 300° at 10 KTS
Cloud Levels
  • Few at 1,600' AGL
  • Few at 1,700' AGL